createdAt,value
2019-03-25T00:01:23.995Z,70.15
2019-03-25T00:03:56.152Z,69.95
2019-03-25T00:06:28.173Z,69.60
2019-03-25T00:09:05.419Z,68.69
2019-03-25T00:11:34.131Z,68.46
2019-03-25T00:14:06.528Z,68.14
2019-03-25T00:16:38.617Z,67.70
2019-03-25T00:19:10.743Z,67.35
2019-03-25T00:21:43.000Z,66.75
2019-03-25T00:24:15.072Z,66.57
2019-03-25T00:26:47.253Z,66.49
2019-03-25T00:29:19.330Z,66.32
2019-03-25T00:31:51.492Z,66.08
2019-03-25T00:34:23.919Z,65.82
2019-03-25T00:36:56.118Z,66.17
2019-03-25T00:39:28.249Z,66.24
2019-03-25T00:42:00.392Z,65.82
2019-03-25T00:44:32.790Z,65.54
2019-03-25T00:47:05.190Z,64.92
2019-03-25T00:49:37.390Z,64.62
2019-03-25T00:52:12.699Z,65.16
2019-03-25T00:54:50.054Z,64.73
2019-03-25T00:57:18.625Z,65.22
2019-03-25T00:59:53.153Z,65.67
2019-03-25T01:02:25.284Z,65.64
2019-03-25T01:04:57.345Z,66.03
2019-03-25T01:07:29.414Z,65.59
2019-03-25T01:10:01.739Z,65.72
2019-03-25T01:12:33.902Z,65.34
2019-03-25T01:15:06.374Z,65.32
2019-03-25T01:17:38.591Z,64.78
2019-03-25T01:20:11.658Z,65.17
2019-03-25T01:22:43.803Z,64.82
2019-03-25T01:25:15.967Z,64.61
2019-03-25T01:27:48.144Z,65.04
2019-03-25T01:30:20.356Z,64.47
2019-03-25T01:32:52.613Z,64.41
2019-03-25T01:35:24.569Z,64.96
2019-03-25T01:37:56.682Z,64.69
2019-03-25T01:40:28.846Z,65.01
2019-03-25T01:43:01.013Z,64.66
2019-03-25T01:45:33.785Z,65.16
2019-03-25T01:48:06.003Z,64.69
2019-03-25T01:50:38.078Z,64.66
2019-03-25T01:53:10.303Z,64.23
2019-03-25T01:55:42.293Z,64.83
2019-03-25T01:58:14.486Z,64.97
2019-03-25T02:00:46.473Z,64.49
2019-03-25T02:03:18.754Z,64.92
2019-03-25T02:05:50.921Z,64.98
2019-03-25T02:08:22.901Z,64.39
2019-03-25T02:10:55.079Z,65.25
2019-03-25T02:13:27.201Z,65.31
2019-03-25T02:15:59.299Z,65.19
2019-03-25T02:18:31.376Z,65.67
2019-03-25T02:21:06.627Z,66.08
2019-03-25T02:23:38.796Z,66.53
2019-03-25T02:26:10.956Z,66.56
2019-03-25T02:28:43.026Z,67.08
2019-03-25T02:31:15.214Z,67.40
2019-03-25T02:33:47.333Z,67.21
2019-03-25T02:36:19.535Z,67.02
2019-03-25T02:38:51.572Z,67.96
2019-03-25T02:41:23.789Z,68.01
2019-03-25T02:43:55.891Z,68.30
2019-03-25T02:46:28.116Z,68.66
2019-03-25T02:49:00.306Z,68.95
2019-03-25T02:51:32.499Z,68.71
2019-03-25T02:54:04.472Z,69.33
2019-03-25T02:56:36.587Z,69.61
2019-03-25T02:59:08.803Z,69.79
2019-03-25T03:01:40.884Z,70.38
2019-03-25T03:04:13.022Z,70.10
2019-03-25T03:06:45.132Z,70.27
2019-03-25T03:09:17.260Z,70.78
2019-03-25T03:11:49.389Z,71.10
2019-03-25T03:14:21.543Z,71.35
2019-03-25T03:16:53.613Z,70.79
2019-03-25T03:19:25.764Z,70.65
2019-03-25T03:21:57.817Z,70.52
2019-03-25T03:24:29.997Z,70.27
2019-03-25T03:27:01.988Z,70.11
2019-03-25T03:29:34.126Z,70.07
2019-03-25T03:32:06.311Z,69.83
2019-03-25T03:34:38.647Z,69.64
2019-03-25T03:37:10.800Z,70.03
2019-03-25T03:39:43.216Z,70.10
2019-03-25T03:42:15.281Z,71.07
2019-03-25T03:44:47.466Z,71.48
2019-03-25T03:47:19.647Z,73.98
2019-03-25T03:49:51.870Z,75.59
2019-03-25T03:52:24.189Z,77.02
2019-03-25T03:54:56.493Z,78.64
2019-03-25T03:57:29.159Z,78.80
2019-03-25T04:00:02.637Z,79.27
2019-03-25T04:02:34.687Z,79.60
2019-03-25T04:05:06.941Z,79.78
2019-03-25T04:07:39.098Z,80.73
2019-03-25T04:10:11.913Z,80.84
2019-03-25T04:12:44.299Z,81.00
2019-03-25T04:15:26.662Z,81.45
2019-03-25T04:17:59.755Z,81.74
2019-03-25T04:20:32.049Z,81.28
2019-03-25T04:23:04.173Z,81.09
2019-03-25T04:25:36.204Z,81.87
2019-03-25T04:28:08.248Z,81.79
2019-03-25T04:30:40.215Z,82.25
2019-03-25T04:33:12.372Z,83.04
2019-03-25T04:35:44.425Z,83.80
2019-03-25T04:38:16.566Z,84.68
2019-03-25T04:40:48.681Z,85.28
2019-03-25T04:43:20.852Z,85.01
2019-03-25T04:45:52.885Z,84.84
2019-03-25T04:48:24.985Z,84.82
2019-03-25T04:50:57.075Z,84.74
2019-03-25T04:53:29.117Z,85.45
2019-03-25T04:56:01.208Z,85.24
2019-03-25T04:58:33.296Z,84.87
2019-03-25T05:01:08.438Z,84.21
2019-03-25T05:03:40.554Z,83.62
2019-03-25T05:06:12.674Z,84.16
2019-03-25T05:08:44.717Z,83.98
2019-03-25T05:11:16.851Z,83.68
2019-03-25T05:13:48.925Z,85.07
2019-03-25T05:16:21.347Z,84.89
2019-03-25T05:18:53.663Z,84.80
2019-03-25T05:21:25.796Z,84.64
2019-03-25T05:23:57.848Z,85.26
2019-03-25T05:26:30.096Z,85.97
2019-03-25T05:29:02.134Z,86.33
2019-03-25T05:31:34.311Z,86.71
2019-03-25T05:34:06.380Z,86.74
2019-03-25T05:36:38.377Z,86.89
2019-03-25T05:39:11.522Z,87.34
2019-03-25T05:41:43.589Z,87.57
2019-03-25T05:44:15.591Z,87.27
2019-03-25T05:46:47.667Z,87.23
2019-03-25T05:49:19.865Z,87.52
2019-03-25T05:51:51.998Z,87.67
2019-03-25T05:54:24.119Z,87.67
2019-03-25T05:57:02.370Z,87.19
2019-03-25T05:59:30.029Z,85.75
2019-03-25T06:02:02.094Z,83.91
2019-03-25T06:04:34.427Z,83.34
2019-03-25T06:07:06.760Z,82.53
2019-03-25T06:09:38.986Z,83.49
2019-03-25T06:12:16.707Z,83.44
2019-03-25T06:14:51.077Z,83.76
2019-03-25T06:17:23.117Z,83.71
2019-03-25T06:20:01.446Z,83.55
2019-03-25T06:22:33.527Z,83.06
2019-03-25T06:25:09.525Z,82.26
2019-03-25T06:27:48.509Z,81.31
2019-03-25T06:30:20.847Z,80.11
2019-03-25T06:32:53.926Z,79.66
2019-03-25T06:35:26.341Z,79.17
2019-03-25T06:37:58.475Z,78.72
2019-03-25T06:40:30.552Z,78.28
2019-03-25T06:43:02.548Z,79.26
2019-03-25T06:45:34.633Z,79.33
2019-03-25T06:48:06.941Z,78.43
2019-03-25T06:50:38.888Z,77.27
2019-03-25T06:53:10.963Z,78.21
2019-03-25T06:55:43.096Z,77.97
2019-03-25T06:58:15.306Z,77.60
2019-03-25T07:00:47.416Z,78.22
2019-03-25T07:03:19.614Z,76.78
2019-03-25T07:05:51.766Z,77.02
2019-03-25T07:08:23.877Z,76.96
2019-03-25T07:10:56.089Z,76.21
2019-03-25T07:13:29.174Z,75.90
2019-03-25T07:16:01.291Z,76.41
2019-03-25T07:18:33.443Z,75.64
2019-03-25T07:21:05.613Z,74.35
2019-03-25T07:23:37.636Z,74.12
2019-03-25T07:26:09.736Z,73.80
2019-03-25T07:28:41.721Z,73.12
2019-03-25T07:31:13.834Z,72.44
2019-03-25T07:33:45.887Z,72.30
2019-03-25T07:36:17.961Z,70.29
2019-03-25T07:38:50.033Z,67.94
2019-03-25T07:41:22.127Z,68.03
2019-03-25T07:43:54.469Z,65.25
2019-03-25T07:46:26.543Z,63.77
2019-03-25T07:48:58.768Z,62.32
2019-03-25T07:51:30.716Z,62.00
2019-03-25T07:54:02.833Z,62.11
2019-03-25T07:56:34.882Z,63.48
2019-03-25T07:59:06.943Z,64.27
2019-03-25T08:01:39.173Z,63.95
2019-03-25T08:04:11.335Z,65.57
2019-03-25T08:06:43.528Z,70.14
2019-03-25T08:09:15.710Z,66.77
2019-03-25T08:11:47.831Z,68.43
2019-03-25T08:14:19.840Z,68.85
2019-03-25T08:16:51.905Z,69.68
2019-03-25T08:19:24.005Z,69.36
2019-03-25T08:21:56.139Z,71.11
2019-03-25T08:24:28.455Z,73.49
2019-03-25T08:27:00.538Z,72.35
2019-03-25T08:29:32.850Z,75.57
2019-03-25T08:32:04.919Z,77.02
2019-03-25T08:34:37.249Z,77.50
2019-03-25T08:37:09.418Z,78.15
2019-03-25T08:39:41.534Z,78.87
2019-03-25T08:42:13.521Z,80.67
2019-03-25T08:44:45.674Z,79.90
2019-03-25T08:47:17.736Z,79.71
2019-03-25T08:49:49.852Z,80.06
2019-03-25T08:52:21.942Z,81.44
2019-03-25T08:54:54.090Z,81.44
2019-03-25T08:57:26.243Z,81.36
2019-03-25T08:59:58.204Z,82.11
2019-03-25T09:02:30.226Z,81.78
2019-03-25T09:05:02.385Z,79.79
2019-03-25T09:07:34.501Z,77.16
2019-03-25T09:10:06.810Z,79.33
2019-03-25T09:12:38.969Z,80.88
2019-03-25T09:15:13.029Z,77.99
2019-03-25T09:17:45.119Z,76.18
2019-03-25T09:20:17.953Z,75.79
2019-03-25T09:22:50.735Z,70.18
2019-03-25T09:25:23.340Z,72.29
2019-03-25T09:27:55.450Z,68.85
2019-03-25T09:31:22.227Z,66.24
2019-03-25T09:33:54.249Z,68.85
2019-03-25T09:36:26.332Z,66.77
2019-03-25T09:38:58.358Z,68.31
2019-03-25T09:41:30.376Z,69.42
2019-03-25T09:44:02.438Z,70.05
2019-03-25T09:46:34.348Z,71.46
2019-03-25T09:49:06.559Z,72.10
2019-03-25T09:51:38.846Z,73.55
2019-03-25T09:54:13.873Z,75.41
2019-03-25T09:56:45.986Z,76.81
2019-03-25T09:59:18.029Z,75.37
2019-03-25T10:01:50.214Z,74.10
2019-03-25T10:04:22.297Z,70.66
2019-03-25T10:06:57.712Z,69.41
2019-03-25T10:09:29.816Z,68.92
2019-03-25T10:12:01.905Z,68.52
2019-03-25T10:14:33.965Z,67.78
2019-03-25T10:17:06.005Z,67.52
2019-03-25T10:19:38.151Z,66.11
2019-03-25T10:22:10.186Z,65.72
2019-03-25T10:24:42.348Z,67.88
2019-03-25T10:27:15.409Z,66.28
2019-03-25T10:29:47.565Z,66.28
2019-03-25T10:32:19.727Z,66.66
2019-03-25T10:34:51.906Z,66.93
2019-03-25T10:37:24.040Z,64.86
2019-03-25T10:39:56.054Z,64.24
2019-03-25T10:42:28.019Z,61.43
2019-03-25T10:45:00.372Z,62.57
2019-03-25T10:47:32.443Z,67.64
2019-03-25T10:50:05.614Z,66.22
2019-03-25T10:52:37.616Z,66.11
2019-03-25T10:55:10.359Z,63.39
2019-03-25T10:57:44.504Z,63.76
2019-03-25T11:00:18.174Z,62.33
2019-03-25T11:02:51.071Z,62.72
2019-03-25T11:05:24.303Z,61.51
2019-03-25T11:07:59.473Z,59.19
2019-03-25T11:10:37.929Z,59.01
2019-03-25T11:13:07.477Z,59.73
2019-03-25T11:15:41.629Z,56.55
2019-03-25T11:18:14.254Z,57.19
2019-03-25T11:20:47.247Z,56.17
2019-03-25T11:23:19.348Z,55.16
2019-03-25T11:25:53.071Z,58.41
2019-03-25T11:28:26.452Z,55.93
2019-03-25T11:31:02.652Z,56.75
2019-03-25T11:33:36.761Z,55.84
2019-03-25T11:36:09.028Z,55.85
2019-03-25T11:38:41.707Z,53.20
2019-03-25T11:41:13.980Z,53.25
2019-03-25T11:43:47.483Z,54.90
2019-03-25T11:46:20.380Z,55.37
2019-03-25T11:48:53.777Z,53.29
2019-03-25T11:51:26.142Z,52.42
2019-03-25T11:54:00.742Z,52.13
2019-03-25T11:56:34.141Z,52.00
2019-03-25T11:59:07.072Z,51.48
2019-03-25T12:01:40.343Z,51.84
2019-03-25T12:04:12.762Z,53.76
2019-03-25T12:06:45.511Z,57.33
2019-03-25T12:09:18.187Z,59.88
2019-03-25T12:11:50.401Z,59.42
2019-03-25T12:14:22.460Z,59.55
2019-03-25T12:16:54.790Z,59.59
2019-03-25T12:19:27.086Z,59.77
2019-03-25T12:21:59.279Z,59.34
2019-03-25T12:24:31.512Z,59.86
2019-03-25T12:27:04.417Z,58.93
2019-03-25T12:29:36.607Z,57.40
2019-03-25T12:32:08.715Z,57.02
2019-03-25T12:34:41.081Z,58.86
2019-03-25T12:37:13.223Z,56.78
2019-03-25T12:39:46.372Z,57.41
2019-03-25T12:42:20.015Z,58.46
2019-03-25T12:44:52.739Z,59.08
2019-03-25T12:47:25.427Z,59.28
2019-03-25T12:49:58.734Z,59.04
2019-03-25T12:52:34.860Z,64.54
2019-03-25T12:55:12.073Z,73.02
2019-03-25T12:57:44.613Z,75.42
2019-03-25T13:00:21.333Z,74.93
2019-03-25T13:02:54.978Z,73.97
2019-03-25T13:05:30.954Z,75.46
2019-03-25T13:08:03.327Z,74.21
2019-03-25T13:10:36.251Z,75.68
2019-03-25T13:13:08.601Z,74.06
2019-03-25T13:15:40.926Z,73.96
2019-03-25T13:18:13.270Z,73.36
2019-03-25T13:20:45.921Z,68.99
2019-03-25T13:23:18.091Z,68.15
2019-03-25T13:25:53.276Z,70.00
2019-03-25T13:28:26.206Z,73.36
2019-03-25T13:30:58.808Z,76.50
2019-03-25T13:33:31.041Z,78.33
2019-03-25T13:36:03.547Z,79.59
2019-03-25T13:38:35.846Z,81.28
2019-03-25T13:41:08.401Z,80.15
2019-03-25T13:43:41.227Z,78.96
2019-03-25T13:46:13.807Z,77.08
2019-03-25T13:48:47.078Z,74.67
2019-03-25T13:51:19.314Z,74.60
2019-03-25T13:53:52.086Z,72.93
2019-03-25T13:56:24.330Z,71.24
2019-03-25T13:58:56.456Z,71.34
2019-03-25T14:01:28.578Z,72.85
2019-03-25T14:04:00.851Z,73.17
2019-03-25T14:06:32.999Z,71.55
2019-03-25T14:09:06.346Z,71.63
2019-03-25T14:11:38.469Z,70.50
2019-03-25T14:14:10.688Z,71.93
2019-03-25T14:16:43.140Z,67.15
2019-03-25T14:19:19.286Z,66.63
2019-03-25T14:21:51.561Z,66.52
2019-03-25T14:24:24.462Z,67.36
2019-03-25T14:26:56.570Z,69.10
2019-03-25T14:29:29.140Z,72.87
2019-03-25T14:32:03.066Z,73.77
2019-03-25T14:34:44.382Z,77.92
2019-03-25T14:37:09.309Z,77.12
2019-03-25T14:39:41.663Z,77.99
2019-03-25T14:42:14.914Z,79.32
2019-03-25T14:44:47.226Z,80.15
2019-03-25T14:47:19.365Z,79.28
2019-03-25T14:49:51.564Z,80.17
2019-03-25T14:52:23.629Z,78.50
2019-03-25T14:54:55.746Z,78.59
2019-03-25T14:57:27.873Z,78.41
2019-03-25T15:00:00.024Z,76.56
2019-03-25T15:02:32.131Z,74.76
2019-03-25T15:05:04.492Z,73.42
2019-03-25T15:07:36.700Z,72.34
2019-03-25T15:10:09.663Z,70.97
2019-03-25T15:12:41.796Z,70.59
2019-03-25T15:15:14.717Z,73.86
2019-03-25T15:17:47.053Z,71.57
2019-03-25T15:20:19.530Z,69.23
2019-03-25T15:22:51.810Z,70.32
2019-03-25T15:25:24.132Z,69.02
2019-03-25T15:27:56.285Z,68.76
2019-03-25T15:30:35.790Z,68.83
2019-03-25T15:33:02.311Z,69.19
2019-03-25T15:35:34.757Z,68.24
2019-03-25T15:38:06.992Z,67.96
2019-03-25T15:40:39.246Z,67.59
2019-03-25T15:43:11.481Z,67.55
2019-03-25T15:45:43.604Z,63.42
2019-03-25T15:48:15.831Z,63.42
2019-03-25T15:50:47.819Z,64.23
2019-03-25T15:53:19.922Z,62.25
2019-03-25T15:55:51.989Z,63.37
2019-03-25T15:58:26.341Z,61.24
2019-03-25T16:00:58.048Z,61.93
2019-03-25T16:03:30.518Z,61.61
2019-03-25T16:06:02.637Z,60.42
2019-03-25T16:08:34.758Z,59.52
2019-03-25T16:11:07.913Z,57.74
2019-03-25T16:13:39.987Z,57.19
2019-03-25T16:16:12.085Z,57.72
2019-03-25T16:18:44.862Z,58.27
2019-03-25T16:21:16.932Z,59.90
2019-03-25T16:23:49.083Z,60.03
2019-03-25T16:26:21.223Z,59.46
2019-03-25T16:28:53.323Z,58.54
2019-03-25T16:31:25.513Z,60.10
2019-03-25T16:33:57.605Z,60.72
2019-03-25T16:36:29.738Z,61.09
2019-03-25T16:39:01.713Z,61.82
2019-03-25T16:41:33.786Z,62.15
2019-03-25T16:44:06.012Z,61.08
2019-03-25T16:46:38.602Z,61.01
2019-03-25T16:49:10.886Z,60.67
2019-03-25T16:51:43.153Z,59.96
2019-03-25T16:54:15.246Z,59.46
2019-03-25T16:56:47.357Z,60.10
2019-03-25T16:59:19.479Z,61.21
2019-03-25T17:01:51.579Z,60.97
2019-03-25T17:04:23.828Z,61.09
2019-03-25T17:06:56.005Z,60.06
2019-03-25T17:09:28.099Z,60.92
2019-03-25T17:12:00.553Z,61.81
2019-03-25T17:14:32.735Z,61.72
2019-03-25T17:17:04.856Z,62.43
2019-03-25T17:19:36.940Z,61.76
2019-03-25T17:22:09.234Z,62.28
2019-03-25T17:24:41.641Z,63.44
2019-03-25T17:27:13.850Z,62.62
2019-03-25T17:29:46.154Z,63.25
2019-03-25T17:32:18.271Z,63.40
2019-03-25T17:34:50.419Z,63.35
2019-03-25T17:37:22.579Z,63.56
2019-03-25T17:39:54.808Z,63.55
2019-03-25T17:42:26.986Z,63.99
2019-03-25T17:44:59.062Z,64.42
2019-03-25T17:47:31.161Z,64.62
2019-03-25T17:50:03.312Z,63.90
2019-03-25T17:52:35.454Z,64.92
2019-03-25T17:55:08.142Z,64.95
2019-03-25T17:57:40.248Z,65.13
2019-03-25T18:00:13.829Z,65.49
2019-03-25T18:02:46.106Z,66.09
2019-03-25T18:05:18.205Z,67.05
2019-03-25T18:07:50.512Z,66.38
2019-03-25T18:10:22.690Z,66.25
2019-03-25T18:12:54.748Z,65.97
2019-03-25T18:15:26.920Z,66.40
2019-03-25T18:17:59.010Z,66.61
2019-03-25T18:20:31.116Z,66.08
2019-03-25T18:23:03.322Z,66.86
2019-03-25T18:25:39.602Z,67.19
2019-03-25T18:28:22.087Z,66.18
2019-03-25T18:30:54.465Z,66.59
2019-03-25T18:33:26.813Z,66.52
2019-03-25T18:35:59.054Z,64.88
2019-03-25T18:38:31.302Z,65.32
2019-03-25T18:41:03.862Z,65.60
2019-03-25T18:43:36.015Z,64.54
2019-03-25T18:46:08.240Z,65.12
2019-03-25T18:48:42.076Z,65.52
2019-03-25T18:51:14.213Z,64.81
2019-03-25T18:53:46.745Z,64.97
2019-03-25T18:56:18.907Z,65.61
2019-03-25T18:58:50.943Z,65.40
2019-03-25T19:01:23.674Z,65.03
2019-03-25T19:03:56.330Z,65.06
2019-03-25T19:06:29.194Z,65.98
2019-03-25T19:09:01.572Z,65.27
2019-03-25T19:11:33.997Z,65.28
2019-03-25T19:14:06.047Z,65.74
2019-03-25T19:16:38.225Z,65.89
2019-03-25T19:19:29.169Z,65.70
2019-03-25T19:22:01.480Z,65.88
2019-03-25T19:24:37.382Z,66.36
2019-03-25T19:27:09.159Z,65.89
2019-03-25T19:29:41.327Z,65.83
2019-03-25T19:32:13.544Z,65.78
2019-03-25T19:35:20.055Z,65.73
2019-03-25T19:37:20.816Z,65.19
2019-03-25T19:40:04.058Z,65.59
2019-03-25T19:42:36.306Z,65.15
2019-03-25T19:45:09.195Z,65.51
2019-03-25T19:47:43.890Z,66.73
2019-03-25T19:50:17.228Z,66.31
2019-03-25T19:52:49.497Z,66.50
2019-03-25T19:55:21.528Z,66.91
2019-03-25T19:57:53.680Z,66.34
2019-03-25T20:00:38.494Z,66.68
2019-03-25T20:03:10.718Z,67.69
2019-03-25T20:05:42.872Z,67.76
2019-03-25T20:08:15.032Z,67.54
2019-03-25T20:10:47.118Z,67.35
2019-03-25T20:13:19.191Z,68.21
2019-03-25T20:15:51.426Z,67.11
2019-03-25T20:18:23.582Z,67.72
2019-03-25T20:20:55.706Z,67.31
2019-03-25T20:23:27.803Z,67.87
2019-03-25T20:25:59.945Z,68.41
2019-03-25T20:28:32.026Z,67.39
2019-03-25T20:31:14.463Z,67.46
2019-03-25T20:33:46.589Z,68.46
2019-03-25T20:36:18.751Z,68.09
2019-03-25T20:38:54.086Z,67.81
2019-03-25T20:41:26.305Z,68.15
2019-03-25T20:43:58.607Z,68.03
2019-03-25T20:46:30.776Z,68.05
2019-03-25T20:49:03.084Z,68.50
2019-03-25T20:51:39.063Z,67.56
2019-03-25T20:54:11.341Z,68.10
2019-03-25T20:56:43.790Z,68.93
2019-03-25T20:59:18.568Z,68.19
2019-03-25T21:01:50.839Z,68.00
2019-03-25T21:04:22.972Z,68.78
2019-03-25T21:06:57.613Z,69.22
2019-03-25T21:09:31.847Z,69.18
2019-03-25T21:12:04.051Z,69.06
2019-03-25T21:14:36.162Z,69.00
2019-03-25T21:17:08.379Z,68.29
2019-03-25T21:19:40.674Z,68.22
2019-03-25T21:22:13.340Z,67.87
2019-03-25T21:24:45.545Z,68.26
2019-03-25T21:27:17.831Z,68.22
2019-03-25T21:29:50.196Z,68.36
2019-03-25T21:32:22.506Z,68.71
2019-03-25T21:34:54.677Z,69.10
2019-03-25T21:37:29.492Z,69.40
2019-03-25T21:40:01.772Z,69.09
2019-03-25T21:42:35.203Z,69.23
2019-03-25T21:45:08.135Z,69.87
2019-03-25T21:47:40.515Z,70.01
2019-03-25T21:50:13.274Z,69.85
2019-03-25T21:52:45.392Z,70.36
2019-03-25T21:55:17.527Z,70.72
2019-03-25T21:57:51.867Z,70.93
2019-03-25T22:00:23.870Z,71.27
2019-03-25T22:02:56.223Z,71.47
2019-03-25T22:05:31.426Z,72.10
2019-03-25T22:08:03.537Z,71.89
2019-03-25T22:10:35.657Z,72.74
2019-03-25T22:13:07.911Z,72.73
2019-03-25T22:15:40.106Z,72.58
2019-03-25T22:18:19.109Z,72.44
2019-03-25T22:20:51.150Z,72.59
2019-03-25T22:23:25.118Z,72.64
2019-03-25T22:25:57.171Z,72.47
2019-03-25T22:28:29.243Z,72.82
2019-03-25T22:31:01.375Z,72.80
2019-03-25T22:33:33.421Z,72.75
2019-03-25T22:36:05.595Z,73.13
2019-03-25T22:38:37.661Z,73.06
2019-03-25T22:41:09.794Z,73.78
2019-03-25T22:43:41.793Z,73.78
2019-03-25T22:46:16.639Z,73.62
2019-03-25T22:48:48.864Z,74.00
2019-03-25T22:51:21.028Z,74.11
2019-03-25T22:53:53.113Z,73.94
2019-03-25T22:56:25.267Z,74.03
2019-03-25T22:58:57.426Z,74.29
2019-03-25T23:01:31.346Z,74.06
2019-03-25T23:04:03.581Z,73.73
2019-03-25T23:09:09.179Z,73.73
2019-03-25T23:11:41.318Z,73.52
2019-03-25T23:14:13.391Z,73.92
2019-03-25T23:16:45.655Z,73.84
2019-03-25T23:19:17.897Z,74.08
2019-03-25T23:21:49.991Z,73.67
2019-03-25T23:24:22.093Z,73.63
2019-03-25T23:26:54.227Z,73.79
2019-03-25T23:29:26.454Z,73.24
2019-03-25T23:31:58.711Z,73.45
2019-03-25T23:34:30.960Z,73.10
2019-03-25T23:37:03.192Z,73.35
2019-03-25T23:39:35.338Z,72.84
2019-03-25T23:42:07.498Z,74.11
2019-03-25T23:44:39.756Z,72.46
2019-03-25T23:47:11.973Z,72.25
2019-03-25T23:49:44.109Z,71.96
2019-03-25T23:52:16.347Z,71.98
2019-03-25T23:54:48.501Z,71.49
2019-03-25T23:57:20.678Z,71.67
2019-03-25T23:59:52.951Z,71.09
